sim
Sign-in with your pilot id or email,
or register
Callsign
Passwort

Schedule Details

Flight Number: OEO4197
Departure: Damascus International Airport (OSDI) at 05:05
Arrival: Frankfurt Airport (EDDF) at 09:40

Weather Information
Getting current METAR information for OSDI 010000Z 21014KT CAVOK 08/06 Q1017
Getting current METAR information for EDDF 282350Z 06005KT CAVOK 02/M00 Q1033 NOSIG

Schedule Frequency

Route Map